sensor_id;sensor_type;location;lat;lon;timestamp;P1;durP1;ratioP1;P2;durP2;ratioP2
14686;SDS011;7431;49.440;11.084;2023-05-15T00:00:09;6.80;;;6.20;;
14686;SDS011;7431;49.440;11.084;2023-05-15T00:02:36;7.40;;;6.67;;
14686;SDS011;7431;49.440;11.084;2023-05-15T00:05:03;7.57;;;6.73;;
14686;SDS011;7431;49.440;11.084;2023-05-15T00:07:29;8.73;;;6.87;;
14686;SDS011;7431;49.440;11.084;2023-05-15T00:09:55;7.77;;;7.17;;
14686;SDS011;7431;49.440;11.084;2023-05-15T00:12:21;7.87;;;7.17;;
14686;SDS011;7431;49.440;11.084;2023-05-15T00:14:47;8.97;;;8.03;;
14686;SDS011;7431;49.440;11.084;2023-05-15T00:17:13;8.67;;;7.87;;
14686;SDS011;7431;49.440;11.084;2023-05-15T00:19:39;8.87;;;8.07;;
14686;SDS011;7431;49.440;11.084;2023-05-15T00:22:05;10.07;;;9.07;;
14686;SDS011;7431;49.440;11.084;2023-05-15T00:24:31;10.47;;;9.57;;
14686;SDS011;7431;49.440;11.084;2023-05-15T00:26:58;10.33;;;9.33;;
14686;SDS011;7431;49.440;11.084;2023-05-15T00:29:24;9.93;;;8.93;;
14686;SDS011;7431;49.440;11.084;2023-05-15T00:31:50;9.70;;;8.80;;
14686;SDS011;7431;49.440;11.084;2023-05-15T00:34:16;9.83;;;8.83;;
14686;SDS011;7431;49.440;11.084;2023-05-15T00:36:42;9.87;;;8.97;;
14686;SDS011;7431;49.440;11.084;2023-05-15T00:39:08;10.97;;;9.87;;
14686;SDS011;7431;49.440;11.084;2023-05-15T00:41:35;10.63;;;9.63;;
14686;SDS011;7431;49.440;11.084;2023-05-15T00:44:02;10.97;;;9.97;;
14686;SDS011;7431;49.440;11.084;2023-05-15T00:46:29;10.30;;;9.37;;
14686;SDS011;7431;49.440;11.084;2023-05-15T00:48:56;10.63;;;9.57;;
14686;SDS011;7431;49.440;11.084;2023-05-15T00:51:22;11.10;;;10.00;;
14686;SDS011;7431;49.440;11.084;2023-05-15T00:53:49;10.87;;;9.77;;
14686;SDS011;7431;49.440;11.084;2023-05-15T00:56:20;10.47;;;9.67;;
14686;SDS011;7431;49.440;11.084;2023-05-15T00:58:46;11.43;;;10.37;;
14686;SDS011;7431;49.440;11.084;2023-05-15T01:01:13;10.90;;;9.80;;
14686;SDS011;7431;49.440;11.084;2023-05-15T01:03:41;10.80;;;9.80;;
14686;SDS011;7431;49.440;11.084;2023-05-15T01:06:07;10.17;;;9.27;;
14686;SDS011;7431;49.440;11.084;2023-05-15T01:08:36;10.73;;;9.73;;
14686;SDS011;7431;49.440;11.084;2023-05-15T01:11:03;10.80;;;9.80;;
14686;SDS011;7431;49.440;11.084;2023-05-15T01:13:30;10.13;;;9.23;;
14686;SDS011;7431;49.440;11.084;2023-05-15T01:15:56;9.53;;;8.70;;
14686;SDS011;7431;49.440;11.084;2023-05-15T01:18:23;10.10;;;9.20;;
14686;SDS011;7431;49.440;11.084;2023-05-15T01:26:20;10.40;;;9.53;;
14686;SDS011;7431;49.440;11.084;2023-05-15T01:31:48;10.30;;;9.40;;
14686;SDS011;7431;49.440;11.084;2023-05-15T01:34:15;9.77;;;8.87;;
14686;SDS011;7431;49.440;11.084;2023-05-15T01:36:52;9.93;;;8.93;;
14686;SDS011;7431;49.440;11.084;2023-05-15T01:39:21;10.13;;;9.20;;
14686;SDS011;7431;49.440;11.084;2023-05-15T01:41:51;10.07;;;9.10;;
14686;SDS011;7431;49.440;11.084;2023-05-15T01:44:26;10.07;;;9.17;;
14686;SDS011;7431;49.440;11.084;2023-05-15T01:46:54;10.10;;;9.20;;
14686;SDS011;7431;49.440;11.084;2023-05-15T01:49:22;9.83;;;8.83;;
14686;SDS011;7431;49.440;11.084;2023-05-15T01:51:49;9.97;;;9.07;;
14686;SDS011;7431;49.440;11.084;2023-05-15T01:54:16;9.83;;;9.03;;
14686;SDS011;7431;49.440;11.084;2023-05-15T01:56:43;9.80;;;8.83;;
14686;SDS011;7431;49.440;11.084;2023-05-15T01:59:09;9.93;;;9.03;;
14686;SDS011;7431;49.440;11.084;2023-05-15T02:01:36;10.50;;;9.60;;
14686;SDS011;7431;49.440;11.084;2023-05-15T02:04:02;9.53;;;8.63;;
14686;SDS011;7431;49.440;11.084;2023-05-15T02:06:29;10.30;;;9.30;;
14686;SDS011;7431;49.440;11.084;2023-05-15T02:08:56;10.47;;;9.50;;
14686;SDS011;7431;49.440;11.084;2023-05-15T02:11:22;10.37;;;9.43;;
14686;SDS011;7431;49.440;11.084;2023-05-15T02:13:48;10.33;;;9.40;;
14686;SDS011;7431;49.440;11.084;2023-05-15T02:16:15;10.10;;;9.10;;
14686;SDS011;7431;49.440;11.084;2023-05-15T02:18:41;10.83;;;9.93;;
14686;SDS011;7431;49.440;11.084;2023-05-15T02:21:07;10.23;;;9.33;;
14686;SDS011;7431;49.440;11.084;2023-05-15T02:23:33;10.33;;;9.43;;
14686;SDS011;7431;49.440;11.084;2023-05-15T02:26:05;10.33;;;9.43;;
14686;SDS011;7431;49.440;11.084;2023-05-15T02:28:34;10.23;;;9.33;;
14686;SDS011;7431;49.440;11.084;2023-05-15T02:31:07;10.77;;;9.87;;
14686;SDS011;7431;49.440;11.084;2023-05-15T02:36:07;10.97;;;9.40;;
14686;SDS011;7431;49.440;11.084;2023-05-15T02:38:38;10.50;;;9.60;;
14686;SDS011;7431;49.440;11.084;2023-05-15T02:41:05;10.70;;;9.80;;
14686;SDS011;7431;49.440;11.084;2023-05-15T02:43:32;10.37;;;9.47;;
14686;SDS011;7431;49.440;11.084;2023-05-15T02:46:00;10.20;;;9.23;;
14686;SDS011;7431;49.440;11.084;2023-05-15T02:48:27;10.43;;;9.43;;
14686;SDS011;7431;49.440;11.084;2023-05-15T02:50:53;9.90;;;9.10;;
14686;SDS011;7431;49.440;11.084;2023-05-15T02:53:19;10.37;;;9.37;;
14686;SDS011;7431;49.440;11.084;2023-05-15T02:55:46;10.00;;;9.10;;
14686;SDS011;7431;49.440;11.084;2023-05-15T02:58:12;9.50;;;8.60;;
14686;SDS011;7431;49.440;11.084;2023-05-15T03:00:37;10.33;;;9.43;;
14686;SDS011;7431;49.440;11.084;2023-05-15T03:03:03;10.10;;;9.20;;
14686;SDS011;7431;49.440;11.084;2023-05-15T03:05:29;10.80;;;9.70;;
14686;SDS011;7431;49.440;11.084;2023-05-15T03:07:56;11.70;;;10.30;;
14686;SDS011;7431;49.440;11.084;2023-05-15T03:10:22;11.97;;;10.77;;
14686;SDS011;7431;49.440;11.084;2023-05-15T03:12:48;11.63;;;10.43;;
14686;SDS011;7431;49.440;11.084;2023-05-15T03:15:14;11.73;;;10.50;;
14686;SDS011;7431;49.440;11.084;2023-05-15T03:17:40;11.27;;;10.17;;
14686;SDS011;7431;49.440;11.084;2023-05-15T03:20:07;10.80;;;9.47;;
14686;SDS011;7431;49.440;11.084;2023-05-15T03:22:33;11.00;;;9.77;;
14686;SDS011;7431;49.440;11.084;2023-05-15T03:24:59;10.37;;;9.47;;
14686;SDS011;7431;49.440;11.084;2023-05-15T03:27:26;11.60;;;10.53;;
14686;SDS011;7431;49.440;11.084;2023-05-15T03:29:52;11.97;;;10.87;;
14686;SDS011;7431;49.440;11.084;2023-05-15T03:32:18;11.37;;;9.80;;
14686;SDS011;7431;49.440;11.084;2023-05-15T03:34:44;10.07;;;9.07;;
14686;SDS011;7431;49.440;11.084;2023-05-15T03:37:10;12.93;;;9.17;;
14686;SDS011;7431;49.440;11.084;2023-05-15T03:39:36;10.40;;;9.00;;
14686;SDS011;7431;49.440;11.084;2023-05-15T03:42:02;10.57;;;9.57;;
14686;SDS011;7431;49.440;11.084;2023-05-15T03:44:28;11.93;;;10.73;;
14686;SDS011;7431;49.440;11.084;2023-05-15T03:46:54;10.40;;;9.10;;
14686;SDS011;7431;49.440;11.084;2023-05-15T03:49:20;10.53;;;9.43;;
14686;SDS011;7431;49.440;11.084;2023-05-15T03:51:45;11.23;;;9.73;;
14686;SDS011;7431;49.440;11.084;2023-05-15T03:54:11;10.00;;;9.03;;
14686;SDS011;7431;49.440;11.084;2023-05-15T03:56:37;10.10;;;9.10;;
14686;SDS011;7431;49.440;11.084;2023-05-15T03:59:03;9.33;;;8.37;;
14686;SDS011;7431;49.440;11.084;2023-05-15T04:01:29;10.30;;;9.30;;
14686;SDS011;7431;49.440;11.084;2023-05-15T04:03:55;10.17;;;9.17;;
14686;SDS011;7431;49.440;11.084;2023-05-15T04:06:21;11.37;;;10.30;;
14686;SDS011;7431;49.440;11.084;2023-05-15T04:08:48;10.17;;;9.27;;
14686;SDS011;7431;49.440;11.084;2023-05-15T04:11:14;10.90;;;9.90;;
14686;SDS011;7431;49.440;11.084;2023-05-15T04:13:40;10.93;;;9.83;;
14686;SDS011;7431;49.440;11.084;2023-05-15T04:16:06;9.73;;;8.73;;
14686;SDS011;7431;49.440;11.084;2023-05-15T04:18:32;10.20;;;9.10;;
14686;SDS011;7431;49.440;11.084;2023-05-15T04:20:58;10.23;;;8.90;;
14686;SDS011;7431;49.440;11.084;2023-05-15T04:23:24;10.47;;;9.37;;
14686;SDS011;7431;49.440;11.084;2023-05-15T04:25:50;10.50;;;9.47;;
14686;SDS011;7431;49.440;11.084;2023-05-15T04:28:17;11.57;;;10.47;;
14686;SDS011;7431;49.440;11.084;2023-05-15T04:30:45;11.67;;;9.50;;
14686;SDS011;7431;49.440;11.084;2023-05-15T04:33:11;10.30;;;9.33;;
14686;SDS011;7431;49.440;11.084;2023-05-15T04:35:37;10.37;;;9.30;;
14686;SDS011;7431;49.440;11.084;2023-05-15T04:38:03;10.07;;;8.83;;
14686;SDS011;7431;49.440;11.084;2023-05-15T04:40:30;10.07;;;9.07;;
14686;SDS011;7431;49.440;11.084;2023-05-15T04:42:56;10.20;;;9.00;;
14686;SDS011;7431;49.440;11.084;2023-05-15T04:45:22;9.77;;;8.77;;
14686;SDS011;7431;49.440;11.084;2023-05-15T04:47:51;9.60;;;8.70;;
14686;SDS011;7431;49.440;11.084;2023-05-15T04:50:17;10.27;;;9.17;;
14686;SDS011;7431;49.440;11.084;2023-05-15T04:52:43;9.37;;;8.33;;
14686;SDS011;7431;49.440;11.084;2023-05-15T04:55:09;10.33;;;9.37;;
14686;SDS011;7431;49.440;11.084;2023-05-15T04:57:35;10.60;;;9.50;;
14686;SDS011;7431;49.440;11.084;2023-05-15T05:00:01;10.00;;;9.00;;
14686;SDS011;7431;49.440;11.084;2023-05-15T05:02:31;10.50;;;9.40;;
14686;SDS011;7431;49.440;11.084;2023-05-15T05:04:57;10.23;;;8.30;;
14686;SDS011;7431;49.440;11.084;2023-05-15T05:07:23;10.00;;;9.07;;
14686;SDS011;7431;49.440;11.084;2023-05-15T05:09:49;10.60;;;9.50;;
14686;SDS011;7431;49.440;11.084;2023-05-15T05:12:14;10.37;;;9.47;;
14686;SDS011;7431;49.440;11.084;2023-05-15T05:14:40;10.67;;;9.07;;
14686;SDS011;7431;49.440;11.084;2023-05-15T05:17:08;9.33;;;8.40;;
14686;SDS011;7431;49.440;11.084;2023-05-15T05:19:34;10.67;;;9.57;;
14686;SDS011;7431;49.440;11.084;2023-05-15T05:22:01;10.77;;;9.77;;
14686;SDS011;7431;49.440;11.084;2023-05-15T05:24:29;9.20;;;8.20;;
14686;SDS011;7431;49.440;11.084;2023-05-15T05:26:55;7.82;;;7.15;;
14686;SDS011;7431;49.440;11.084;2023-05-15T05:29:24;7.18;;;6.30;;
14686;SDS011;7431;49.440;11.084;2023-05-15T05:31:50;7.82;;;7.03;;
14686;SDS011;7431;49.440;11.084;2023-05-15T05:34:17;8.70;;;7.75;;
14686;SDS011;7431;49.440;11.084;2023-05-15T05:36:43;7.70;;;6.90;;
14686;SDS011;7431;49.440;11.084;2023-05-15T05:39:09;8.90;;;8.02;;
14686;SDS011;7431;49.440;11.084;2023-05-15T05:41:35;7.28;;;6.68;;
14686;SDS011;7431;49.440;11.084;2023-05-15T05:44:01;7.88;;;7.28;;
14686;SDS011;7431;49.440;11.084;2023-05-15T05:46:27;8.68;;;7.88;;
14686;SDS011;7431;49.440;11.084;2023-05-15T05:48:53;9.30;;;8.40;;
14686;SDS011;7431;49.440;11.084;2023-05-15T05:51:19;9.18;;;7.47;;
14686;SDS011;7431;49.440;11.084;2023-05-15T05:53:45;8.50;;;7.70;;
14686;SDS011;7431;49.440;11.084;2023-05-15T05:56:11;8.40;;;7.60;;
14686;SDS011;7431;49.440;11.084;2023-05-15T05:58:37;7.47;;;6.78;;
14686;SDS011;7431;49.440;11.084;2023-05-15T06:01:03;7.65;;;6.78;;
14686;SDS011;7431;49.440;11.084;2023-05-15T06:03:29;7.40;;;6.68;;
14686;SDS011;7431;49.440;11.084;2023-05-15T06:05:55;7.00;;;6.35;;
14686;SDS011;7431;49.440;11.084;2023-05-15T06:08:21;7.88;;;6.50;;
14686;SDS011;7431;49.440;11.084;2023-05-15T06:10:47;6.57;;;6.07;;
14686;SDS011;7431;49.440;11.084;2023-05-15T06:13:13;7.97;;;6.15;;
14686;SDS011;7431;49.440;11.084;2023-05-15T06:15:40;8.05;;;6.40;;
14686;SDS011;7431;49.440;11.084;2023-05-15T06:18:06;7.05;;;6.45;;
14686;SDS011;7431;49.440;11.084;2023-05-15T06:20:32;6.97;;;6.38;;
14686;SDS011;7431;49.440;11.084;2023-05-15T06:22:58;7.45;;;6.85;;
14686;SDS011;7431;49.440;11.084;2023-05-15T06:25:24;6.85;;;6.35;;
14686;SDS011;7431;49.440;11.084;2023-05-15T06:27:50;7.10;;;6.43;;
14686;SDS011;7431;49.440;11.084;2023-05-15T06:30:16;6.57;;;5.97;;
14686;SDS011;7431;49.440;11.084;2023-05-15T06:32:42;6.18;;;5.68;;
14686;SDS011;7431;49.440;11.084;2023-05-15T06:35:08;6.88;;;6.30;;
14686;SDS011;7431;49.440;11.084;2023-05-15T06:37:35;6.57;;;5.97;;
14686;SDS011;7431;49.440;11.084;2023-05-15T06:40:01;6.90;;;6.30;;
14686;SDS011;7431;49.440;11.084;2023-05-15T06:42:27;5.90;;;5.40;;
14686;SDS011;7431;49.440;11.084;2023-05-15T06:44:53;5.70;;;5.20;;
14686;SDS011;7431;49.440;11.084;2023-05-15T06:47:19;5.95;;;5.55;;
14686;SDS011;7431;49.440;11.084;2023-05-15T06:49:45;6.10;;;5.60;;
14686;SDS011;7431;49.440;11.084;2023-05-15T06:52:11;6.10;;;5.60;;
14686;SDS011;7431;49.440;11.084;2023-05-15T06:54:37;5.50;;;5.10;;
14686;SDS011;7431;49.440;11.084;2023-05-15T06:57:05;7.35;;;5.38;;
14686;SDS011;7431;49.440;11.084;2023-05-15T06:59:31;5.90;;;5.38;;
14686;SDS011;7431;49.440;11.084;2023-05-15T07:02:01;5.75;;;5.05;;
14686;SDS011;7431;49.440;11.084;2023-05-15T07:04:27;6.03;;;5.53;;
14686;SDS011;7431;49.440;11.084;2023-05-15T07:06:54;5.15;;;4.63;;
14686;SDS011;7431;49.440;11.084;2023-05-15T07:09:20;5.53;;;5.05;;
14686;SDS011;7431;49.440;11.084;2023-05-15T07:11:46;5.25;;;4.90;;
14686;SDS011;7431;49.440;11.084;2023-05-15T07:14:12;5.22;;;4.82;;
14686;SDS011;7431;49.440;11.084;2023-05-15T07:16:39;5.65;;;5.22;;
14686;SDS011;7431;49.440;11.084;2023-05-15T07:19:06;5.03;;;4.72;;
14686;SDS011;7431;49.440;11.084;2023-05-15T07:21:32;5.80;;;4.40;;
14686;SDS011;7431;49.440;11.084;2023-05-15T07:23:58;5.40;;;4.90;;
14686;SDS011;7431;49.440;11.084;2023-05-15T07:26:24;5.30;;;4.90;;
14686;SDS011;7431;49.440;11.084;2023-05-15T07:28:50;5.30;;;4.80;;
14686;SDS011;7431;49.440;11.084;2023-05-15T07:31:16;5.93;;;4.80;;
14686;SDS011;7431;49.440;11.084;2023-05-15T07:33:42;4.95;;;4.40;;
14686;SDS011;7431;49.440;11.084;2023-05-15T07:36:08;4.95;;;4.40;;
14686;SDS011;7431;49.440;11.084;2023-05-15T07:38:35;5.10;;;4.70;;
14686;SDS011;7431;49.440;11.084;2023-05-15T07:41:01;5.00;;;4.65;;
14686;SDS011;7431;49.440;11.084;2023-05-15T07:43:27;5.28;;;4.80;;
14686;SDS011;7431;49.440;11.084;2023-05-15T07:45:53;5.13;;;4.72;;
14686;SDS011;7431;49.440;11.084;2023-05-15T07:48:19;5.40;;;5.00;;
14686;SDS011;7431;49.440;11.084;2023-05-15T07:50:45;4.72;;;4.35;;
14686;SDS011;7431;49.440;11.084;2023-05-15T07:53:12;4.80;;;4.40;;
14686;SDS011;7431;49.440;11.084;2023-05-15T07:55:39;5.05;;;4.65;;
14686;SDS011;7431;49.440;11.084;2023-05-15T07:58:05;5.30;;;4.80;;
14686;SDS011;7431;49.440;11.084;2023-05-15T08:00:32;5.10;;;4.70;;
14686;SDS011;7431;49.440;11.084;2023-05-15T08:02:58;4.78;;;4.38;;
14686;SDS011;7431;49.440;11.084;2023-05-15T08:05:24;5.38;;;4.88;;
14686;SDS011;7431;49.440;11.084;2023-05-15T08:07:50;5.47;;;5.07;;
14686;SDS011;7431;49.440;11.084;2023-05-15T08:10:16;5.25;;;4.85;;
14686;SDS011;7431;49.440;11.084;2023-05-15T08:12:42;5.55;;;5.15;;
14686;SDS011;7431;49.440;11.084;2023-05-15T08:15:10;6.00;;;5.43;;
14686;SDS011;7431;49.440;11.084;2023-05-15T08:17:36;5.63;;;5.13;;
14686;SDS011;7431;49.440;11.084;2023-05-15T08:20:02;5.75;;;5.10;;
14686;SDS011;7431;49.440;11.084;2023-05-15T08:22:29;5.80;;;5.30;;
14686;SDS011;7431;49.440;11.084;2023-05-15T08:24:55;5.10;;;4.70;;
14686;SDS011;7431;49.440;11.084;2023-05-15T08:27:22;5.18;;;4.68;;
14686;SDS011;7431;49.440;11.084;2023-05-15T08:29:48;5.35;;;4.85;;
14686;SDS011;7431;49.440;11.084;2023-05-15T08:32:14;5.63;;;4.97;;
14686;SDS011;7431;49.440;11.084;2023-05-15T08:34:40;5.38;;;4.82;;
14686;SDS011;7431;49.440;11.084;2023-05-15T08:37:06;5.40;;;4.90;;
14686;SDS011;7431;49.440;11.084;2023-05-15T08:39:32;6.65;;;4.60;;
14686;SDS011;7431;49.440;11.084;2023-05-15T08:42:11;5.03;;;3.85;;
14686;SDS011;7431;49.440;11.084;2023-05-15T08:44:39;5.63;;;4.82;;
14686;SDS011;7431;49.440;11.084;2023-05-15T08:47:05;4.78;;;4.38;;
14686;SDS011;7431;49.440;11.084;2023-05-15T08:52:01;4.90;;;4.40;;
14686;SDS011;7431;49.440;11.084;2023-05-15T08:54:28;5.13;;;4.50;;
14686;SDS011;7431;49.440;11.084;2023-05-15T08:56:54;5.70;;;4.43;;
14686;SDS011;7431;49.440;11.084;2023-05-15T08:59:20;8.73;;;5.00;;
14686;SDS011;7431;49.440;11.084;2023-05-15T09:01:46;5.38;;;4.90;;
14686;SDS011;7431;49.440;11.084;2023-05-15T09:04:13;4.88;;;4.20;;
14686;SDS011;7431;49.440;11.084;2023-05-15T09:06:39;4.90;;;4.35;;
14686;SDS011;7431;49.440;11.084;2023-05-15T09:09:05;4.72;;;3.92;;
14686;SDS011;7431;49.440;11.084;2023-05-15T09:11:37;4.30;;;4.00;;
14686;SDS011;7431;49.440;11.084;2023-05-15T09:14:04;4.60;;;4.20;;
14686;SDS011;7431;49.440;11.084;2023-05-15T09:16:31;3.85;;;3.55;;
14686;SDS011;7431;49.440;11.084;2023-05-15T09:18:57;3.80;;;3.50;;
14686;SDS011;7431;49.440;11.084;2023-05-15T09:21:32;3.83;;;3.40;;
14686;SDS011;7431;49.440;11.084;2023-05-15T09:24:18;5.10;;;3.47;;
14686;SDS011;7431;49.440;11.084;2023-05-15T09:26:47;3.70;;;3.40;;
14686;SDS011;7431;49.440;11.084;2023-05-15T09:29:26;3.90;;;3.50;;
14686;SDS011;7431;49.440;11.084;2023-05-15T09:31:53;4.07;;;3.67;;
14686;SDS011;7431;49.440;11.084;2023-05-15T09:34:22;4.20;;;3.90;;
14686;SDS011;7431;49.440;11.084;2023-05-15T09:36:53;3.72;;;3.42;;
14686;SDS011;7431;49.440;11.084;2023-05-15T09:39:23;3.85;;;3.55;;
14686;SDS011;7431;49.440;11.084;2023-05-15T09:41:49;4.32;;;3.30;;
14686;SDS011;7431;49.440;11.084;2023-05-15T09:44:25;3.85;;;3.55;;
14686;SDS011;7431;49.440;11.084;2023-05-15T09:46:51;4.13;;;3.80;;
14686;SDS011;7431;49.440;11.084;2023-05-15T09:49:18;3.97;;;3.67;;
14686;SDS011;7431;49.440;11.084;2023-05-15T09:51:44;3.90;;;3.58;;
14686;SDS011;7431;49.440;11.084;2023-05-15T09:54:17;4.18;;;3.70;;
14686;SDS011;7431;49.440;11.084;2023-05-15T09:56:43;5.38;;;4.40;;
14686;SDS011;7431;49.440;11.084;2023-05-15T09:59:19;6.30;;;4.55;;
14686;SDS011;7431;49.440;11.084;2023-05-15T10:01:49;5.57;;;5.07;;
14686;SDS011;7431;49.440;11.084;2023-05-15T10:04:15;8.32;;;7.22;;
14686;SDS011;7431;49.440;11.084;2023-05-15T10:06:43;6.68;;;6.05;;
14686;SDS011;7431;49.440;11.084;2023-05-15T10:09:10;4.60;;;4.20;;
14686;SDS011;7431;49.440;11.084;2023-05-15T10:11:37;5.97;;;4.78;;
14686;SDS011;7431;49.440;11.084;2023-05-15T10:14:04;5.35;;;3.67;;
14686;SDS011;7431;49.440;11.084;2023-05-15T10:16:32;5.13;;;3.85;;
14686;SDS011;7431;49.440;11.084;2023-05-15T10:18:59;2.72;;;2.42;;
14686;SDS011;7431;49.440;11.084;2023-05-15T10:21:27;2.92;;;2.40;;
14686;SDS011;7431;49.440;11.084;2023-05-15T10:23:55;1.95;;;1.85;;
14686;SDS011;7431;49.440;11.084;2023-05-15T10:26:23;2.10;;;1.98;;
14686;SDS011;7431;49.440;11.084;2023-05-15T10:28:54;2.45;;;2.20;;
14686;SDS011;7431;49.440;11.084;2023-05-15T10:31:21;3.30;;;3.00;;
14686;SDS011;7431;49.440;11.084;2023-05-15T10:33:49;3.08;;;2.78;;
14686;SDS011;7431;49.440;11.084;2023-05-15T10:36:16;3.38;;;3.08;;
14686;SDS011;7431;49.440;11.084;2023-05-15T10:38:42;3.90;;;3.10;;
14686;SDS011;7431;49.440;11.084;2023-05-15T10:41:09;3.20;;;2.90;;
14686;SDS011;7431;49.440;11.084;2023-05-15T10:43:35;3.60;;;3.30;;
14686;SDS011;7431;49.440;11.084;2023-05-15T10:46:02;3.42;;;3.13;;
14686;SDS011;7431;49.440;11.084;2023-05-15T10:48:29;7.72;;;6.65;;
14686;SDS011;7431;49.440;11.084;2023-05-15T10:50:55;3.80;;;3.40;;
14686;SDS011;7431;49.440;11.084;2023-05-15T10:53:25;4.22;;;3.20;;
14686;SDS011;7431;49.440;11.084;2023-05-15T10:55:51;3.90;;;3.22;;
14686;SDS011;7431;49.440;11.084;2023-05-15T10:58:20;3.13;;;2.92;;
14686;SDS011;7431;49.440;11.084;2023-05-15T11:00:47;3.30;;;3.00;;
14686;SDS011;7431;49.440;11.084;2023-05-15T11:03:13;4.05;;;3.03;;
14686;SDS011;7431;49.440;11.084;2023-05-15T11:08:24;3.25;;;2.97;;
14686;SDS011;7431;49.440;11.084;2023-05-15T11:10:50;5.57;;;4.75;;
14686;SDS011;7431;49.440;11.084;2023-05-15T11:13:17;6.20;;;5.60;;
14686;SDS011;7431;49.440;11.084;2023-05-15T11:15:46;6.78;;;4.68;;
14686;SDS011;7431;49.440;11.084;2023-05-15T11:18:13;4.90;;;4.40;;
14686;SDS011;7431;49.440;11.084;2023-05-15T11:23:05;5.68;;;5.13;;
14686;SDS011;7431;49.440;11.084;2023-05-15T11:25:32;3.70;;;3.40;;
14686;SDS011;7431;49.440;11.084;2023-05-15T11:27:58;3.58;;;3.20;;
14686;SDS011;7431;49.440;11.084;2023-05-15T11:30:35;3.72;;;3.40;;
14686;SDS011;7431;49.440;11.084;2023-05-15T11:33:05;4.03;;;3.35;;
14686;SDS011;7431;49.440;11.084;2023-05-15T11:38:00;4.47;;;4.05;;
14686;SDS011;7431;49.440;11.084;2023-05-15T11:40:28;4.10;;;3.78;;
14686;SDS011;7431;49.440;11.084;2023-05-15T11:43:00;4.15;;;3.75;;
14686;SDS011;7431;49.440;11.084;2023-05-15T11:45:28;4.03;;;3.70;;
14686;SDS011;7431;49.440;11.084;2023-05-15T11:47:55;3.78;;;3.47;;
14686;SDS011;7431;49.440;11.084;2023-05-15T11:50:21;3.90;;;3.60;;
14686;SDS011;7431;49.440;11.084;2023-05-15T11:52:48;3.75;;;3.50;;
14686;SDS011;7431;49.440;11.084;2023-05-15T11:55:14;4.40;;;4.00;;
14686;SDS011;7431;49.440;11.084;2023-05-15T11:57:40;4.63;;;4.03;;
14686;SDS011;7431;49.440;11.084;2023-05-15T12:00:07;4.45;;;4.03;;
14686;SDS011;7431;49.440;11.084;2023-05-15T12:02:33;4.32;;;3.60;;
14686;SDS011;7431;49.440;11.084;2023-05-15T12:04:59;4.15;;;3.67;;
14686;SDS011;7431;49.440;11.084;2023-05-15T12:07:25;4.90;;;3.67;;
14686;SDS011;7431;49.440;11.084;2023-05-15T12:09:51;4.13;;;3.75;;
14686;SDS011;7431;49.440;11.084;2023-05-15T12:12:19;4.07;;;3.78;;
14686;SDS011;7431;49.440;11.084;2023-05-15T12:14:45;4.45;;;4.07;;
14686;SDS011;7431;49.440;11.084;2023-05-15T12:17:11;4.20;;;3.80;;
14686;SDS011;7431;49.440;11.084;2023-05-15T12:19:37;4.30;;;3.90;;
14686;SDS011;7431;49.440;11.084;2023-05-15T12:24:29;4.63;;;4.00;;
14686;SDS011;7431;49.440;11.084;2023-05-15T12:26:55;4.45;;;3.88;;
14686;SDS011;7431;49.440;11.084;2023-05-15T12:29:21;4.15;;;3.80;;
14686;SDS011;7431;49.440;11.084;2023-05-15T12:31:47;4.93;;;4.50;;
14686;SDS011;7431;49.440;11.084;2023-05-15T12:34:17;4.38;;;3.97;;
14686;SDS011;7431;49.440;11.084;2023-05-15T12:36:43;5.95;;;5.32;;
14686;SDS011;7431;49.440;11.084;2023-05-15T12:39:09;4.55;;;4.13;;
14686;SDS011;7431;49.440;11.084;2023-05-15T12:41:36;10.80;;;9.70;;
14686;SDS011;7431;49.440;11.084;2023-05-15T12:44:03;7.65;;;5.30;;
14686;SDS011;7431;49.440;11.084;2023-05-15T12:46:29;6.65;;;5.80;;
14686;SDS011;7431;49.440;11.084;2023-05-15T12:48:58;9.35;;;7.28;;
14686;SDS011;7431;49.440;11.084;2023-05-15T12:51:24;5.97;;;5.38;;
14686;SDS011;7431;49.440;11.084;2023-05-15T12:53:53;5.63;;;4.78;;
14686;SDS011;7431;49.440;11.084;2023-05-15T12:56:21;5.72;;;5.22;;
14686;SDS011;7431;49.440;11.084;2023-05-15T12:58:47;6.85;;;5.88;;
14686;SDS011;7431;49.440;11.084;2023-05-15T13:01:14;6.70;;;5.90;;
14686;SDS011;7431;49.440;11.084;2023-05-15T13:03:41;8.77;;;6.38;;
14686;SDS011;7431;49.440;11.084;2023-05-15T13:06:08;5.55;;;5.05;;
14686;SDS011;7431;49.440;11.084;2023-05-15T13:08:40;6.38;;;5.70;;
14686;SDS011;7431;49.440;11.084;2023-05-15T13:11:09;5.53;;;4.88;;
14686;SDS011;7431;49.440;11.084;2023-05-15T13:13:45;4.90;;;4.50;;
14686;SDS011;7431;49.440;11.084;2023-05-15T13:16:18;4.85;;;4.25;;
14686;SDS011;7431;49.440;11.084;2023-05-15T13:18:45;4.68;;;4.10;;
14686;SDS011;7431;49.440;11.084;2023-05-15T13:21:10;5.43;;;4.93;;
14686;SDS011;7431;49.440;11.084;2023-05-15T13:23:36;5.35;;;3.85;;
14686;SDS011;7431;49.440;11.084;2023-05-15T13:26:02;4.97;;;4.55;;
14686;SDS011;7431;49.440;11.084;2023-05-15T13:28:28;5.13;;;4.72;;
14686;SDS011;7431;49.440;11.084;2023-05-15T13:30:54;6.35;;;4.90;;
14686;SDS011;7431;49.440;11.084;2023-05-15T13:33:20;5.35;;;3.95;;
14686;SDS011;7431;49.440;11.084;2023-05-15T13:35:46;5.85;;;5.00;;
14686;SDS011;7431;49.440;11.084;2023-05-15T13:38:12;5.90;;;5.30;;
14686;SDS011;7431;49.440;11.084;2023-05-15T13:40:38;4.65;;;4.18;;
14686;SDS011;7431;49.440;11.084;2023-05-15T13:43:04;6.18;;;4.20;;
14686;SDS011;7431;49.440;11.084;2023-05-15T13:45:30;4.45;;;4.13;;
14686;SDS011;7431;49.440;11.084;2023-05-15T13:47:56;4.50;;;4.10;;
14686;SDS011;7431;49.440;11.084;2023-05-15T13:50:22;4.38;;;3.80;;
14686;SDS011;7431;49.440;11.084;2023-05-15T13:52:48;5.38;;;4.13;;
14686;SDS011;7431;49.440;11.084;2023-05-15T13:55:14;4.25;;;3.90;;
14686;SDS011;7431;49.440;11.084;2023-05-15T13:57:41;6.28;;;4.10;;
14686;SDS011;7431;49.440;11.084;2023-05-15T14:00:07;4.30;;;3.90;;
14686;SDS011;7431;49.440;11.084;2023-05-15T14:02:36;7.10;;;3.80;;
14686;SDS011;7431;49.440;11.084;2023-05-15T14:05:02;3.90;;;3.60;;
14686;SDS011;7431;49.440;11.084;2023-05-15T14:07:29;4.97;;;4.22;;
14686;SDS011;7431;49.440;11.084;2023-05-15T14:09:56;4.10;;;3.80;;
14686;SDS011;7431;49.440;11.084;2023-05-15T14:12:22;4.65;;;3.72;;
14686;SDS011;7431;49.440;11.084;2023-05-15T14:14:48;6.07;;;3.50;;
14686;SDS011;7431;49.440;11.084;2023-05-15T14:17:14;5.82;;;4.88;;
14686;SDS011;7431;49.440;11.084;2023-05-15T14:19:40;5.20;;;4.72;;
14686;SDS011;7431;49.440;11.084;2023-05-15T14:22:07;5.15;;;4.60;;
14686;SDS011;7431;49.440;11.084;2023-05-15T14:24:33;4.47;;;4.00;;
14686;SDS011;7431;49.440;11.084;2023-05-15T14:26:59;5.55;;;3.55;;
14686;SDS011;7431;49.440;11.084;2023-05-15T14:29:25;4.00;;;3.70;;
14686;SDS011;7431;49.440;11.084;2023-05-15T14:31:51;4.50;;;4.00;;
14686;SDS011;7431;49.440;11.084;2023-05-15T14:34:17;4.30;;;4.00;;
14686;SDS011;7431;49.440;11.084;2023-05-15T14:36:44;4.57;;;4.10;;
14686;SDS011;7431;49.440;11.084;2023-05-15T14:39:10;5.57;;;4.60;;
14686;SDS011;7431;49.440;11.084;2023-05-15T14:41:36;4.55;;;4.10;;
14686;SDS011;7431;49.440;11.084;2023-05-15T14:44:02;4.88;;;3.70;;
14686;SDS011;7431;49.440;11.084;2023-05-15T14:46:28;4.70;;;4.28;;
14686;SDS011;7431;49.440;11.084;2023-05-15T14:48:54;5.57;;;4.63;;
14686;SDS011;7431;49.440;11.084;2023-05-15T14:51:20;4.68;;;4.28;;
14686;SDS011;7431;49.440;11.084;2023-05-15T14:53:46;5.93;;;4.20;;
14686;SDS011;7431;49.440;11.084;2023-05-15T14:56:12;4.65;;;3.92;;
14686;SDS011;7431;49.440;11.084;2023-05-15T14:58:38;5.20;;;4.40;;
14686;SDS011;7431;49.440;11.084;2023-05-15T15:01:04;4.43;;;4.03;;
14686;SDS011;7431;49.440;11.084;2023-05-15T15:03:30;4.72;;;4.32;;